createdAt,value
2023-03-17T00:01:06.064Z,37.58
2023-03-17T00:03:13.907Z,37.66
2023-03-17T00:05:22.719Z,37.66
2023-03-17T00:07:27.918Z,37.44
2023-03-17T00:09:32.952Z,37.69
2023-03-17T00:11:37.798Z,37.66
2023-03-17T00:13:42.615Z,37.58
2023-03-17T00:15:48.209Z,37.69
2023-03-17T00:17:58.359Z,37.61
2023-03-17T00:20:03.797Z,37.58
2023-03-17T00:22:17.907Z,37.79
2023-03-17T00:24:22.606Z,37.53
2023-03-17T00:26:27.881Z,37.77
2023-03-17T00:28:32.574Z,37.50
2023-03-17T00:30:37.651Z,37.64
2023-03-17T00:32:42.895Z,37.79
2023-03-17T00:34:50.300Z,37.69
2023-03-17T00:36:56.194Z,37.61
2023-03-17T00:39:02.369Z,37.84
2023-03-17T00:41:07.616Z,37.63
2023-03-17T00:43:12.789Z,37.66
2023-03-17T00:45:18.867Z,37.65
2023-03-17T00:47:23.830Z,37.82
2023-03-17T00:49:29.313Z,37.59
2023-03-17T00:51:36.817Z,37.74
2023-03-17T00:53:42.043Z,37.50
2023-03-17T00:55:48.664Z,37.81
2023-03-17T00:57:55.162Z,37.90
2023-03-17T00:59:59.970Z,37.65
2023-03-17T01:02:05.280Z,37.76
2023-03-17T01:04:12.438Z,37.72
2023-03-17T01:06:18.812Z,37.73
2023-03-17T01:08:26.981Z,37.65
2023-03-17T01:10:32.797Z,37.93
2023-03-17T01:12:38.277Z,37.74
2023-03-17T01:14:43.824Z,37.63
2023-03-17T01:16:50.584Z,37.76
2023-03-17T01:18:55.787Z,37.92
2023-03-17T01:21:00.864Z,37.68
2023-03-17T01:23:05.916Z,37.72
2023-03-17T01:25:14.989Z,37.91
2023-03-17T01:27:21.003Z,37.92
2023-03-17T01:29:25.879Z,37.87
2023-03-17T01:31:30.808Z,37.60
2023-03-17T01:33:36.614Z,37.80
2023-03-17T01:35:42.381Z,37.78
2023-03-17T01:37:47.928Z,37.77
2023-03-17T01:39:52.738Z,37.83
2023-03-17T01:42:02.082Z,37.92
2023-03-17T01:44:07.617Z,37.90
2023-03-17T01:46:28.181Z,37.83
2023-03-17T01:48:37.390Z,37.96
2023-03-17T01:50:42.734Z,37.96
2023-03-17T01:52:48.145Z,37.99
2023-03-17T01:54:57.270Z,38.24
2023-03-17T01:57:10.579Z,38.09
2023-03-17T01:59:21.399Z,38.04
2023-03-17T02:01:32.225Z,38.11
2023-03-17T02:03:37.214Z,38.03
2023-03-17T02:05:43.209Z,38.15
2023-03-17T02:07:48.522Z,38.39
2023-03-17T02:09:54.083Z,38.38
2023-03-17T02:12:01.586Z,38.44
2023-03-17T02:14:09.286Z,38.40
2023-03-17T02:16:17.700Z,38.37
2023-03-17T02:18:26.003Z,38.39
2023-03-17T02:21:13.009Z,38.49
2023-03-17T02:23:25.092Z,38.33
2023-03-17T02:25:33.435Z,38.52
2023-03-17T02:27:44.684Z,38.73
2023-03-17T02:29:50.966Z,38.44
2023-03-17T02:31:56.298Z,38.67
2023-03-17T02:34:00.960Z,38.27
2023-03-17T02:36:06.087Z,38.61
2023-03-17T02:38:11.220Z,38.53
2023-03-17T02:40:18.817Z,38.61
2023-03-17T02:42:23.792Z,38.57
2023-03-17T02:44:28.822Z,38.64
2023-03-17T02:46:33.898Z,38.74
2023-03-17T02:48:39.633Z,38.72
2023-03-17T02:50:44.424Z,38.59
2023-03-17T02:52:49.222Z,38.59
2023-03-17T02:54:54.196Z,38.47
2023-03-17T02:57:01.933Z,38.57
2023-03-17T02:59:07.615Z,38.73
2023-03-17T03:01:13.229Z,38.73
2023-03-17T03:03:18.162Z,38.59
2023-03-17T03:05:23.263Z,38.74
2023-03-17T03:07:27.990Z,38.59
2023-03-17T03:09:33.074Z,38.64
2023-03-17T03:11:37.953Z,38.94
2023-03-17T03:13:45.485Z,38.91
2023-03-17T03:15:50.754Z,38.79
2023-03-17T03:17:55.492Z,38.81
2023-03-17T03:20:00.244Z,38.82
2023-03-17T03:22:05.140Z,38.73
2023-03-17T03:24:11.044Z,38.74
2023-03-17T03:26:15.870Z,38.73
2023-03-17T03:28:20.705Z,38.91
2023-03-17T03:30:28.810Z,38.90
2023-03-17T03:32:34.062Z,38.68
2023-03-17T03:34:39.132Z,39.07
2023-03-17T03:36:44.142Z,38.99
2023-03-17T03:38:49.430Z,38.84
2023-03-17T03:40:54.205Z,39.07
2023-03-17T03:42:58.928Z,38.76
2023-03-17T03:45:03.774Z,39.10
2023-03-17T03:47:12.332Z,38.81
2023-03-17T03:49:17.166Z,39.19
2023-03-17T03:51:22.371Z,39.10
2023-03-17T03:53:27.285Z,39.02
2023-03-17T03:55:32.580Z,38.90
2023-03-17T03:57:37.702Z,39.14
2023-03-17T03:59:42.588Z,38.86
2023-03-17T04:01:47.442Z,38.92
2023-03-17T04:03:55.371Z,39.02
2023-03-17T04:06:00.155Z,38.89
2023-03-17T04:08:05.228Z,38.85
2023-03-17T04:10:11.999Z,39.12
2023-03-17T04:12:17.060Z,39.01
2023-03-17T04:14:21.852Z,39.06
2023-03-17T04:16:27.197Z,39.16
2023-03-17T04:18:32.008Z,39.16
2023-03-17T04:20:39.389Z,39.27
2023-03-17T04:22:44.535Z,39.32
2023-03-17T04:24:49.630Z,39.29
2023-03-17T04:26:54.654Z,39.11
2023-03-17T04:28:59.505Z,39.21
2023-03-17T04:31:04.636Z,39.31
2023-03-17T04:33:09.625Z,39.35
2023-03-17T04:35:17.472Z,39.32
2023-03-17T04:37:25.344Z,39.33
2023-03-17T04:39:31.001Z,39.38
2023-03-17T04:41:35.964Z,39.39
2023-03-17T04:43:41.421Z,39.33
2023-03-17T04:45:46.245Z,39.35
2023-03-17T04:47:51.115Z,39.30
2023-03-17T04:49:55.863Z,39.39
2023-03-17T04:52:00.880Z,39.50
2023-03-17T04:54:08.614Z,39.53
2023-03-17T04:56:14.173Z,39.55
2023-03-17T04:58:29.830Z,39.65
2023-03-17T05:00:38.914Z,39.66
2023-03-17T05:02:44.291Z,39.38
2023-03-17T05:04:49.476Z,39.70
2023-03-17T05:06:54.253Z,39.40
2023-03-17T05:08:59.254Z,39.73
2023-03-17T05:11:06.741Z,39.67
2023-03-17T05:13:11.722Z,39.64
2023-03-17T05:15:16.604Z,39.86
2023-03-17T05:17:21.568Z,39.82
2023-03-17T05:19:27.065Z,39.84
2023-03-17T05:21:32.177Z,39.89
2023-03-17T05:23:37.243Z,40.02
2023-03-17T05:25:42.719Z,39.83
2023-03-17T05:27:50.229Z,40.07
2023-03-17T05:29:56.103Z,40.10
2023-03-17T05:32:01.313Z,40.11
2023-03-17T05:34:07.297Z,40.15
2023-03-17T05:36:12.323Z,39.85
2023-03-17T05:38:18.125Z,40.00
2023-03-17T05:40:23.975Z,40.11
2023-03-17T05:42:28.865Z,39.92
2023-03-17T05:44:36.915Z,40.29
2023-03-17T05:46:42.178Z,40.40
2023-03-17T05:48:47.183Z,40.21
2023-03-17T05:50:52.212Z,40.06
2023-03-17T05:52:57.026Z,40.30
2023-03-17T05:55:03.783Z,40.34
2023-03-17T05:57:08.658Z,40.19
2023-03-17T05:59:15.239Z,40.45
2023-03-17T06:01:22.889Z,40.28
2023-03-17T06:03:27.739Z,40.23
2023-03-17T06:05:33.272Z,40.36
2023-03-17T06:07:51.693Z,40.22
2023-03-17T06:10:00.626Z,40.35
2023-03-17T06:12:06.861Z,40.21
2023-03-17T06:14:11.599Z,40.58
2023-03-17T06:16:16.711Z,40.51
2023-03-17T06:18:24.178Z,40.40
2023-03-17T06:20:28.909Z,40.44
2023-03-17T06:22:33.688Z,40.27
2023-03-17T06:24:38.711Z,40.42
2023-03-17T06:26:43.955Z,40.49
2023-03-17T06:28:48.632Z,40.55
2023-03-17T06:30:53.436Z,40.25
2023-03-17T06:32:58.325Z,40.33
2023-03-17T06:35:07.432Z,40.61
2023-03-17T06:37:12.396Z,40.32
2023-03-17T06:39:18.505Z,40.36
2023-03-17T06:41:23.620Z,40.57
2023-03-17T06:43:28.616Z,40.51
2023-03-17T06:45:34.692Z,40.46
2023-03-17T06:47:40.051Z,40.29
2023-03-17T06:49:44.783Z,40.29
2023-03-17T06:51:52.362Z,40.31
2023-03-17T06:53:57.121Z,40.50
2023-03-17T06:56:02.287Z,40.32
2023-03-17T06:58:07.138Z,40.19
2023-03-17T07:00:15.985Z,40.27
2023-03-17T07:02:20.697Z,40.48
2023-03-17T07:04:25.498Z,40.56
2023-03-17T07:06:31.124Z,40.29
2023-03-17T07:08:39.164Z,40.32
2023-03-17T07:10:45.961Z,40.12
2023-03-17T07:12:51.146Z,40.33
2023-03-17T07:14:56.256Z,39.90
2023-03-17T07:17:01.268Z,39.99
2023-03-17T07:19:07.420Z,39.89
2023-03-17T07:21:12.262Z,39.62
2023-03-17T07:23:18.432Z,39.55
2023-03-17T07:25:26.011Z,39.59
2023-03-17T07:27:31.442Z,39.43
2023-03-17T07:29:37.092Z,39.48
2023-03-17T07:31:44.981Z,39.51
2023-03-17T07:33:50.778Z,39.33
2023-03-17T07:35:55.886Z,39.17
2023-03-17T07:38:00.689Z,39.01
2023-03-17T07:40:06.410Z,38.98
2023-03-17T07:42:17.537Z,38.97
2023-03-17T07:44:22.777Z,38.77
2023-03-17T07:46:28.005Z,38.72
2023-03-17T07:48:33.517Z,38.57
2023-03-17T07:50:42.886Z,38.44
2023-03-17T07:52:47.724Z,38.36
2023-03-17T07:54:53.345Z,38.37
2023-03-17T07:56:58.630Z,38.04
2023-03-17T07:59:08.027Z,38.04
2023-03-17T08:01:13.238Z,37.89
2023-03-17T08:03:19.412Z,37.73
2023-03-17T08:05:24.374Z,37.69
2023-03-17T08:07:29.311Z,37.65
2023-03-17T08:09:34.065Z,37.71
2023-03-17T08:11:39.711Z,37.40
2023-03-17T08:13:44.551Z,37.28
2023-03-17T08:15:52.256Z,37.26
2023-03-17T08:17:57.359Z,37.13
2023-03-17T08:20:02.542Z,37.20
2023-03-17T08:22:07.938Z,37.04
2023-03-17T08:24:13.095Z,36.45
2023-03-17T08:26:18.791Z,36.38
2023-03-17T08:28:24.044Z,36.30
2023-03-17T08:30:31.545Z,36.40
2023-03-17T08:32:41.309Z,35.80
2023-03-17T08:34:48.197Z,35.60
2023-03-17T08:36:53.522Z,35.86
2023-03-17T08:38:58.424Z,35.51
2023-03-17T08:41:04.695Z,35.57
2023-03-17T08:43:10.881Z,35.50
2023-03-17T08:45:16.753Z,35.31
2023-03-17T08:47:21.871Z,35.23
2023-03-17T08:49:29.618Z,34.96
2023-03-17T08:51:37.216Z,35.18
2023-03-17T08:53:43.027Z,35.09
2023-03-17T08:55:47.970Z,34.84
2023-03-17T08:57:53.058Z,34.61
2023-03-17T08:59:57.981Z,34.45
2023-03-17T09:02:03.161Z,34.41
2023-03-17T09:04:08.992Z,34.35
2023-03-17T09:06:16.896Z,34.01
2023-03-17T09:08:21.948Z,34.23
2023-03-17T09:10:27.467Z,34.17
2023-03-17T09:12:34.227Z,33.74
2023-03-17T09:14:43.878Z,33.40
2023-03-17T09:16:50.369Z,33.80
2023-03-17T09:18:55.291Z,33.48
2023-03-17T09:21:02.470Z,33.28
2023-03-17T09:23:12.867Z,33.43
2023-03-17T09:25:18.061Z,32.90
2023-03-17T09:27:23.583Z,32.64
2023-03-17T09:29:29.185Z,32.54
2023-03-17T09:31:34.067Z,32.57
2023-03-17T09:33:38.738Z,32.45
2023-03-17T09:35:44.047Z,32.21
2023-03-17T09:37:50.014Z,32.16
2023-03-17T09:39:58.002Z,31.62
2023-03-17T09:42:22.945Z,31.60
2023-03-17T09:44:40.153Z,31.34
2023-03-17T09:46:55.310Z,30.49
2023-03-17T09:49:04.499Z,30.33
2023-03-17T09:51:12.551Z,32.07
2023-03-17T09:53:21.992Z,31.38
2023-03-17T09:55:33.814Z,30.99
2023-03-17T09:57:40.852Z,31.95
2023-03-17T09:59:48.095Z,33.33
2023-03-17T10:01:55.240Z,32.54
2023-03-17T10:04:00.009Z,32.95
2023-03-17T10:06:19.059Z,32.68
2023-03-17T10:08:31.626Z,32.14
2023-03-17T10:10:48.550Z,32.54
2023-03-17T10:13:05.549Z,32.27
2023-03-17T10:15:21.105Z,35.00
2023-03-17T10:17:29.047Z,34.11
2023-03-17T10:19:38.129Z,33.33
2023-03-17T10:21:52.588Z,33.06
2023-03-17T10:23:58.444Z,32.72
2023-03-17T10:26:10.645Z,32.33
2023-03-17T10:28:27.814Z,32.85
2023-03-17T10:30:35.792Z,33.85
2023-03-17T10:32:42.501Z,33.86
2023-03-17T10:34:48.735Z,33.19
2023-03-17T10:36:57.752Z,35.02
2023-03-17T10:39:03.259Z,34.97
2023-03-17T10:41:16.997Z,33.91
2023-03-17T10:43:23.542Z,33.51
2023-03-17T10:45:32.550Z,34.24
2023-03-17T10:47:40.055Z,33.61
2023-03-17T10:49:47.301Z,35.40
2023-03-17T10:51:55.322Z,36.79
2023-03-17T10:54:04.020Z,35.44
2023-03-17T10:56:21.155Z,35.66
2023-03-17T10:58:41.820Z,34.85
2023-03-17T11:01:00.417Z,35.66
2023-03-17T11:03:13.917Z,34.94
2023-03-17T11:05:24.674Z,35.40
2023-03-17T11:07:32.484Z,34.79
2023-03-17T11:09:39.416Z,34.66
2023-03-17T11:11:51.584Z,34.73
2023-03-17T11:14:05.152Z,34.36
2023-03-17T11:16:13.539Z,33.85
2023-03-17T11:18:23.945Z,35.13
2023-03-17T11:20:54.041Z,34.97
2023-03-17T11:23:05.502Z,34.32
2023-03-17T11:25:16.253Z,34.55
2023-03-17T11:27:32.544Z,35.55
2023-03-17T11:29:51.964Z,34.28
2023-03-17T11:32:02.773Z,33.96
2023-03-17T11:34:14.229Z,33.89
2023-03-17T11:36:36.355Z,33.94
2023-03-17T11:38:47.147Z,33.98
2023-03-17T11:41:30.453Z,33.17
2023-03-17T11:43:44.028Z,32.98
2023-03-17T11:45:55.423Z,33.09
2023-03-17T11:48:16.137Z,32.59
2023-03-17T11:50:31.176Z,32.46
2023-03-17T11:52:55.414Z,32.50
2023-03-17T11:55:10.231Z,32.83
2023-03-17T11:57:20.524Z,32.51
2023-03-17T11:59:37.479Z,32.38
2023-03-17T12:01:54.967Z,32.63
2023-03-17T12:04:12.373Z,32.41
2023-03-17T12:06:21.037Z,32.69
2023-03-17T12:08:33.144Z,32.41
2023-03-17T12:10:43.955Z,32.37
2023-03-17T12:12:53.817Z,32.82
2023-03-17T12:15:05.408Z,32.23
2023-03-17T12:17:18.622Z,32.65
2023-03-17T12:19:29.009Z,32.83
2023-03-17T12:21:38.747Z,33.41
2023-03-17T12:23:50.531Z,34.40
2023-03-17T12:26:02.562Z,33.42
2023-03-17T12:28:16.670Z,33.71
2023-03-17T12:30:33.226Z,33.18
2023-03-17T12:32:43.092Z,33.12
2023-03-17T12:34:55.431Z,33.31
2023-03-17T12:37:02.182Z,33.04
2023-03-17T12:39:13.369Z,32.96
2023-03-17T12:41:34.459Z,32.60
2023-03-17T12:43:47.757Z,32.48
2023-03-17T12:46:09.779Z,32.63
2023-03-17T12:48:47.311Z,32.33
2023-03-17T12:51:11.593Z,33.14
2023-03-17T12:53:32.658Z,32.52
2023-03-17T12:55:38.398Z,32.46
2023-03-17T12:57:45.111Z,32.33
2023-03-17T12:59:52.344Z,32.14
2023-03-17T13:02:08.946Z,32.34
2023-03-17T13:04:27.073Z,32.63
2023-03-17T13:06:34.869Z,32.56
2023-03-17T13:08:43.792Z,32.94
2023-03-17T13:10:49.247Z,32.21
2023-03-17T13:13:13.834Z,32.06
2023-03-17T13:15:47.192Z,33.75
2023-03-17T13:18:12.771Z,33.01
2023-03-17T13:20:21.792Z,32.32
2023-03-17T13:22:36.701Z,32.27
2023-03-17T13:24:51.098Z,32.49
2023-03-17T13:27:02.043Z,31.88
2023-03-17T13:29:26.851Z,32.00
2023-03-17T13:31:36.985Z,32.10
2023-03-17T13:33:52.209Z,32.42
2023-03-17T13:36:19.211Z,32.35
2023-03-17T13:38:52.518Z,32.13
2023-03-17T13:41:46.482Z,32.48
2023-03-17T13:44:05.886Z,32.67
2023-03-17T13:46:30.492Z,32.94
2023-03-17T13:48:38.736Z,32.76
2023-03-17T13:50:46.841Z,32.73
2023-03-17T13:52:56.884Z,32.56
2023-03-17T13:55:06.073Z,33.00
2023-03-17T13:57:29.654Z,32.93
2023-03-17T13:59:38.274Z,33.30
2023-03-17T14:01:49.716Z,32.87
2023-03-17T14:03:55.702Z,33.21
2023-03-17T14:06:06.609Z,33.16
2023-03-17T14:08:20.282Z,33.08
2023-03-17T14:10:28.241Z,32.79
2023-03-17T14:12:41.228Z,33.04
2023-03-17T14:14:52.316Z,33.30
2023-03-17T14:17:03.867Z,33.07
2023-03-17T14:19:20.590Z,33.37
2023-03-17T14:21:33.110Z,33.68
2023-03-17T14:23:37.986Z,34.06
2023-03-17T14:25:43.578Z,34.18
2023-03-17T14:27:51.033Z,34.25
2023-03-17T14:29:56.206Z,33.82
2023-03-17T14:32:06.657Z,33.55
2023-03-17T14:34:16.703Z,33.68
2023-03-17T14:36:22.430Z,33.62
2023-03-17T14:38:32.413Z,33.55
2023-03-17T14:40:37.153Z,33.44
2023-03-17T14:42:41.849Z,33.55
2023-03-17T14:44:47.080Z,33.03
2023-03-17T14:46:51.837Z,33.42
2023-03-17T14:49:02.604Z,33.23
2023-03-17T14:51:11.930Z,32.80
2023-03-17T14:53:18.493Z,33.04
2023-03-17T14:55:34.477Z,33.28
2023-03-17T14:57:40.752Z,33.09
2023-03-17T14:59:47.186Z,33.14
2023-03-17T15:01:58.060Z,33.29
2023-03-17T15:04:10.693Z,33.97
2023-03-17T15:06:26.589Z,33.63
2023-03-17T15:08:59.557Z,33.67
2023-03-17T15:11:08.480Z,33.71
2023-03-17T15:13:15.531Z,34.41
2023-03-17T15:15:28.081Z,34.12
2023-03-17T15:17:36.487Z,33.60
2023-03-17T15:19:43.916Z,33.41
2023-03-17T15:21:48.863Z,33.88
2023-03-17T15:23:53.782Z,33.64
2023-03-17T15:25:59.887Z,33.49
2023-03-17T15:28:13.832Z,34.01
2023-03-17T15:30:20.136Z,33.97
2023-03-17T15:32:27.349Z,33.96
2023-03-17T15:34:32.090Z,34.16
2023-03-17T15:36:37.018Z,34.04
2023-03-17T15:38:42.133Z,34.39
2023-03-17T15:40:46.810Z,34.45
2023-03-17T15:42:51.910Z,34.36
2023-03-17T15:45:00.359Z,34.48
2023-03-17T15:47:06.106Z,34.73
2023-03-17T15:49:13.663Z,34.69
2023-03-17T15:51:20.933Z,34.45
2023-03-17T15:53:26.216Z,34.83
2023-03-17T15:55:33.051Z,34.41
2023-03-17T15:57:37.737Z,34.57
2023-03-17T15:59:42.877Z,34.75
2023-03-17T16:01:50.757Z,34.91
2023-03-17T16:03:56.174Z,35.02
2023-03-17T16:06:01.896Z,34.85
2023-03-17T16:08:07.029Z,35.20
2023-03-17T16:10:19.383Z,34.94
2023-03-17T16:12:24.248Z,35.01
2023-03-17T16:14:29.454Z,34.88
2023-03-17T16:16:39.346Z,35.25
2023-03-17T16:18:47.164Z,34.62
2023-03-17T16:20:53.436Z,34.80
2023-03-17T16:23:02.079Z,35.13
2023-03-17T16:25:09.501Z,34.96
2023-03-17T16:27:17.736Z,34.95
2023-03-17T16:29:23.731Z,34.70
2023-03-17T16:31:31.169Z,34.58
2023-03-17T16:33:42.261Z,34.83
2023-03-17T16:35:52.524Z,34.69
2023-03-17T16:37:58.136Z,34.78
2023-03-17T16:40:03.437Z,34.83
2023-03-17T16:42:25.214Z,34.61
2023-03-17T16:44:30.137Z,34.50
2023-03-17T16:46:37.166Z,34.67
2023-03-17T16:48:42.187Z,34.66
2023-03-17T16:50:50.140Z,34.70
2023-03-17T16:52:55.321Z,34.45
2023-03-17T16:55:00.186Z,34.64
2023-03-17T16:57:07.724Z,34.51
2023-03-17T16:59:18.012Z,34.79
2023-03-17T17:01:25.575Z,34.94
2023-03-17T17:03:31.230Z,34.95
2023-03-17T17:05:36.359Z,34.87
2023-03-17T17:07:43.759Z,34.71
2023-03-17T17:09:48.692Z,34.62
2023-03-17T17:11:53.774Z,35.04
2023-03-17T17:14:00.052Z,34.76
2023-03-17T17:16:05.248Z,34.80
2023-03-17T17:18:14.730Z,34.92
2023-03-17T17:20:22.900Z,34.93
2023-03-17T17:22:28.024Z,34.88
2023-03-17T17:24:38.108Z,34.71
2023-03-17T17:26:43.119Z,34.98
2023-03-17T17:28:47.800Z,34.88
2023-03-17T17:30:53.537Z,35.08
2023-03-17T17:32:59.909Z,35.03
2023-03-17T17:35:05.090Z,35.28
2023-03-17T17:37:12.592Z,35.33
2023-03-17T17:39:17.682Z,35.31
2023-03-17T17:41:25.259Z,35.38
2023-03-17T17:43:30.213Z,35.29
2023-03-17T17:45:34.923Z,35.57
2023-03-17T17:47:39.706Z,35.48
2023-03-17T17:49:44.593Z,35.44
2023-03-17T17:51:49.887Z,35.45
2023-03-17T17:53:54.579Z,35.68
2023-03-17T17:55:59.579Z,35.59
2023-03-17T17:58:07.034Z,35.46
2023-03-17T18:00:16.578Z,35.74
2023-03-17T18:02:21.513Z,35.57
2023-03-17T18:04:26.537Z,36.03
2023-03-17T18:06:31.506Z,35.64
2023-03-17T18:08:37.029Z,36.12
2023-03-17T18:10:41.643Z,36.14
2023-03-17T18:12:46.706Z,35.93
2023-03-17T18:14:54.046Z,36.13
2023-03-17T18:16:59.029Z,36.03
2023-03-17T18:19:03.962Z,36.38
2023-03-17T18:21:09.043Z,36.10
2023-03-17T18:23:13.760Z,36.24
2023-03-17T18:25:19.636Z,36.33
2023-03-17T18:27:24.446Z,36.28
2023-03-17T18:29:29.160Z,36.53
2023-03-17T18:31:41.783Z,36.42
2023-03-17T18:33:49.325Z,36.49
2023-03-17T18:35:55.885Z,36.66
2023-03-17T18:38:01.580Z,36.72
2023-03-17T18:40:18.600Z,36.59
2023-03-17T18:42:24.104Z,36.77
2023-03-17T18:44:29.226Z,36.65
2023-03-17T18:46:37.027Z,37.05
2023-03-17T18:48:42.393Z,36.99
2023-03-17T18:50:47.454Z,37.01
2023-03-17T18:52:53.142Z,37.08
2023-03-17T18:54:57.880Z,37.27
2023-03-17T18:57:02.964Z,37.34
2023-03-17T18:59:07.753Z,36.95
2023-03-17T19:01:12.756Z,37.30
2023-03-17T19:03:20.950Z,37.19
2023-03-17T19:05:26.059Z,37.15
2023-03-17T19:07:30.868Z,37.54
2023-03-17T19:09:35.556Z,37.69
2023-03-17T19:11:41.457Z,37.54
2023-03-17T19:13:46.614Z,37.40
2023-03-17T19:15:52.259Z,37.71
2023-03-17T19:17:57.343Z,37.85
2023-03-17T19:20:05.092Z,37.81
2023-03-17T19:22:11.190Z,37.86
2023-03-17T19:24:16.347Z,37.88
2023-03-17T19:26:21.251Z,37.87
2023-03-17T19:28:26.542Z,38.06
2023-03-17T19:30:31.735Z,38.27
2023-03-17T19:32:36.913Z,38.03
2023-03-17T19:34:41.730Z,38.38
2023-03-17T19:36:49.488Z,38.20
2023-03-17T19:38:54.166Z,38.23
2023-03-17T19:40:59.223Z,38.11
2023-03-17T19:43:04.638Z,38.41
2023-03-17T19:45:10.857Z,38.46
2023-03-17T19:47:15.595Z,38.42
2023-03-17T19:49:21.189Z,38.42
2023-03-17T19:51:27.252Z,38.55
2023-03-17T19:53:34.827Z,38.31
2023-03-17T19:55:39.896Z,38.41
2023-03-17T19:57:44.787Z,38.46
2023-03-17T19:59:49.569Z,38.76
2023-03-17T20:01:54.375Z,38.76
2023-03-17T20:03:59.267Z,38.78
2023-03-17T20:06:06.492Z,38.87
2023-03-17T20:08:11.813Z,38.84
2023-03-17T20:10:19.521Z,38.74
2023-03-17T20:12:25.300Z,38.65
2023-03-17T20:14:30.570Z,38.77
2023-03-17T20:16:37.032Z,38.91
2023-03-17T20:18:41.998Z,38.97
2023-03-17T20:20:49.520Z,38.72
2023-03-17T20:22:54.616Z,38.99
2023-03-17T20:24:59.420Z,39.03
2023-03-17T20:27:08.074Z,38.87
2023-03-17T20:29:14.520Z,38.97
2023-03-17T20:31:20.011Z,39.18
2023-03-17T20:33:25.069Z,39.07
2023-03-17T20:35:30.844Z,38.98
2023-03-17T20:37:35.685Z,39.21
2023-03-17T20:39:40.878Z,39.29
2023-03-17T20:41:45.579Z,39.20
2023-03-17T20:43:53.966Z,39.29
2023-03-17T20:45:58.961Z,39.46
2023-03-17T20:48:05.054Z,39.54
2023-03-17T20:50:10.892Z,39.48
2023-03-17T20:52:17.562Z,39.38
2023-03-17T20:54:23.370Z,39.44
2023-03-17T20:56:29.989Z,39.40
2023-03-17T20:58:34.817Z,39.55
2023-03-17T21:00:42.387Z,39.50
2023-03-17T21:02:50.409Z,39.40
2023-03-17T21:04:55.370Z,39.67
2023-03-17T21:07:00.163Z,39.76
2023-03-17T21:09:05.274Z,39.64
2023-03-17T21:11:16.125Z,39.98
2023-03-17T21:13:20.958Z,39.65
2023-03-17T21:15:25.711Z,39.88
2023-03-17T21:17:33.574Z,40.35
2023-03-17T21:19:38.849Z,40.35
2023-03-17T21:21:43.676Z,40.22
2023-03-17T21:23:49.083Z,40.45
2023-03-17T21:25:58.282Z,40.46
2023-03-17T21:28:04.084Z,40.34
2023-03-17T21:30:12.108Z,40.61
2023-03-17T21:32:16.902Z,40.71
2023-03-17T21:34:24.725Z,40.73
2023-03-17T21:36:29.664Z,40.56
2023-03-17T21:38:34.815Z,40.69
2023-03-17T21:40:39.873Z,40.68
2023-03-17T21:42:45.901Z,40.77
2023-03-17T21:44:52.168Z,40.65
2023-03-17T21:46:57.706Z,40.70
2023-03-17T21:49:03.588Z,40.70
2023-03-17T21:51:11.718Z,40.44
2023-03-17T21:53:17.337Z,40.65
2023-03-17T21:55:22.243Z,40.75
2023-03-17T21:57:27.892Z,40.65
2023-03-17T21:59:35.800Z,40.76
2023-03-17T22:01:41.092Z,40.87
2023-03-17T22:03:46.232Z,40.89
2023-03-17T22:05:51.367Z,40.89
2023-03-17T22:07:58.738Z,41.23
2023-03-17T22:10:07.071Z,41.05
2023-03-17T22:12:12.694Z,41.04
2023-03-17T22:14:20.107Z,41.03
2023-03-17T22:16:25.178Z,41.16
2023-03-17T22:18:30.124Z,41.13
2023-03-17T22:20:35.143Z,41.19
2023-03-17T22:22:39.889Z,41.35
2023-03-17T22:24:47.509Z,41.37
2023-03-17T22:26:52.507Z,41.38
2023-03-17T22:28:58.494Z,41.65
2023-03-17T22:31:05.186Z,41.48
2023-03-17T22:33:10.040Z,41.38
2023-03-17T22:35:14.775Z,41.50
2023-03-17T22:37:19.513Z,41.72
2023-03-17T22:39:24.253Z,41.58
2023-03-17T22:41:33.908Z,41.73
2023-03-17T22:43:40.233Z,41.72
2023-03-17T22:45:44.997Z,41.47
2023-03-17T22:47:49.704Z,41.52
2023-03-17T22:49:54.439Z,41.78
2023-03-17T22:51:59.392Z,41.46
2023-03-17T22:54:04.321Z,41.57
2023-03-17T22:56:11.058Z,41.59
2023-03-17T22:58:19.474Z,41.55
2023-03-17T23:00:25.780Z,41.65
2023-03-17T23:02:30.845Z,41.63
2023-03-17T23:04:36.114Z,41.66
2023-03-17T23:06:41.662Z,41.62
2023-03-17T23:08:47.585Z,41.96
2023-03-17T23:10:54.119Z,42.06
2023-03-17T23:12:58.981Z,41.95
2023-03-17T23:15:08.025Z,41.98
2023-03-17T23:17:13.262Z,41.97
2023-03-17T23:19:18.289Z,42.12
2023-03-17T23:21:26.609Z,42.33
2023-03-17T23:23:31.737Z,42.20
2023-03-17T23:25:36.794Z,42.28
2023-03-17T23:27:41.633Z,42.15
2023-03-17T23:29:46.620Z,42.16
2023-03-17T23:31:54.743Z,42.51
2023-03-17T23:33:59.714Z,42.44
2023-03-17T23:36:04.487Z,42.23
2023-03-17T23:38:09.925Z,42.47
2023-03-17T23:40:17.404Z,42.45
2023-03-17T23:42:22.445Z,42.38
2023-03-17T23:44:27.312Z,42.76
2023-03-17T23:46:32.116Z,42.66
2023-03-17T23:48:42.508Z,42.74
2023-03-17T23:50:47.499Z,43.02
2023-03-17T23:52:54.201Z,42.96
2023-03-17T23:54:59.463Z,43.00
2023-03-17T23:57:04.225Z,42.97
2023-03-17T23:59:09.842Z,43.10
